createdAt,value
2022-09-02T00:00:00.884Z,1016.32
2022-09-02T00:01:00.886Z,1016.30
2022-09-02T00:02:01.038Z,1016.31
2022-09-02T00:03:00.986Z,1016.34
2022-09-02T00:04:00.839Z,1016.33
2022-09-02T00:05:00.840Z,1016.33
2022-09-02T00:06:00.829Z,1016.29
2022-09-02T00:07:00.807Z,1016.31
2022-09-02T00:08:00.805Z,1016.29
2022-09-02T00:09:00.797Z,1016.29
2022-09-02T00:10:00.776Z,1016.31
2022-09-02T00:11:00.769Z,1016.30
2022-09-02T00:12:00.755Z,1016.28
2022-09-02T00:13:00.757Z,1016.28
2022-09-02T00:14:00.766Z,1016.32
2022-09-02T00:15:00.721Z,1016.32
2022-09-02T00:16:00.709Z,1016.25
2022-09-02T00:17:00.999Z,1016.24
2022-09-02T00:18:00.697Z,1016.29
2022-09-02T00:19:00.706Z,1016.25
2022-09-02T00:20:00.665Z,1016.26
2022-09-02T00:21:00.661Z,1016.25
2022-09-02T00:22:00.641Z,1016.23
2022-09-02T00:23:00.631Z,1016.24
2022-09-02T00:24:00.611Z,1016.24
2022-09-02T00:25:00.618Z,1016.25
2022-09-02T00:26:00.587Z,1016.26
2022-09-02T00:27:00.586Z,1016.24
2022-09-02T00:28:00.598Z,1016.24
2022-09-02T00:29:00.572Z,1016.23
2022-09-02T00:30:00.560Z,1016.21
2022-09-02T00:31:00.557Z,1016.22
2022-09-02T00:32:00.572Z,1016.22
2022-09-02T00:33:00.522Z,1016.22
2022-09-02T00:34:00.498Z,1016.21
2022-09-02T00:35:00.499Z,1016.17
2022-09-02T00:36:00.490Z,1016.17
2022-09-02T00:37:00.488Z,1016.19
2022-09-02T00:38:00.473Z,1016.22
2022-09-02T00:39:00.462Z,1016.18
2022-09-02T00:40:00.435Z,1016.15
2022-09-02T00:41:00.431Z,1016.18
2022-09-02T00:42:00.431Z,1016.15
2022-09-02T00:43:00.412Z,1016.14
2022-09-02T00:44:00.403Z,1016.14
2022-09-02T00:45:00.399Z,1016.13
2022-09-02T00:46:00.443Z,1016.13
2022-09-02T00:47:00.489Z,1016.13
2022-09-02T00:48:00.353Z,1016.11
2022-09-02T00:49:00.342Z,1016.12
2022-09-02T00:50:00.562Z,1016.11
2022-09-02T00:51:00.346Z,1016.16
2022-09-02T00:52:00.310Z,1016.10
2022-09-02T00:53:00.290Z,1016.10
2022-09-02T00:54:00.283Z,1016.11
2022-09-02T00:55:00.297Z,1016.10
2022-09-02T00:56:00.256Z,1016.09
2022-09-02T00:57:00.250Z,1016.11
2022-09-02T00:58:00.248Z,1016.07
2022-09-02T00:59:00.231Z,1016.12
2022-09-02T01:00:00.256Z,1016.08
2022-09-02T01:01:00.354Z,1016.09
2022-09-02T01:02:00.396Z,1016.09
2022-09-02T01:03:00.184Z,1016.08
2022-09-02T01:04:00.177Z,1016.06
2022-09-02T01:05:00.200Z,1016.07
2022-09-02T01:06:00.177Z,1016.08
2022-09-02T01:07:00.146Z,1016.05
2022-09-02T01:08:00.147Z,1016.07
2022-09-02T01:09:00.247Z,1016.03
2022-09-02T01:10:00.126Z,1016.04
2022-09-02T01:11:00.318Z,1016.04
2022-09-02T01:12:00.080Z,1016.00
2022-09-02T01:13:00.087Z,1016.01
2022-09-02T01:14:00.079Z,1016.01
2022-09-02T01:15:00.053Z,1016.04
2022-09-02T01:16:00.135Z,1016.02
2022-09-02T01:17:00.030Z,1016.02
2022-09-02T01:18:00.022Z,1016.02
2022-09-02T01:19:00.008Z,1016.02
2022-09-02T01:19:59.998Z,1016.01
2022-09-02T01:20:59.987Z,1015.99
2022-09-02T01:21:59.977Z,1015.98
2022-09-02T01:22:59.960Z,1016.00
2022-09-02T01:23:59.950Z,1016.02
2022-09-02T01:24:59.947Z,1015.97
2022-09-02T01:25:59.940Z,1016.00
2022-09-02T01:26:59.935Z,1015.97
2022-09-02T01:27:59.910Z,1015.98
2022-09-02T01:28:59.891Z,1016.00
2022-09-02T01:29:59.885Z,1016.03
2022-09-02T01:30:59.874Z,1016.01
2022-09-02T01:31:59.987Z,1015.99
2022-09-02T01:32:59.849Z,1016.00
2022-09-02T01:33:59.844Z,1015.98
2022-09-02T01:34:59.821Z,1015.94
2022-09-02T01:35:59.823Z,1015.95
2022-09-02T01:36:59.814Z,1015.94
2022-09-02T01:37:59.801Z,1015.90
2022-09-02T01:38:59.779Z,1015.93
2022-09-02T01:39:59.785Z,1015.91
2022-09-02T01:40:59.758Z,1015.91
2022-09-02T01:41:59.759Z,1015.91
2022-09-02T01:42:59.751Z,1015.94
2022-09-02T01:43:59.719Z,1015.95
2022-09-02T01:44:59.714Z,1015.95
2022-09-02T01:45:59.710Z,1015.92
2022-09-02T01:46:59.743Z,1015.94
2022-09-02T01:47:59.698Z,1015.94
2022-09-02T01:48:59.663Z,1015.95
2022-09-02T01:49:59.659Z,1015.95
2022-09-02T01:50:59.643Z,1015.97
2022-09-02T01:51:59.630Z,1015.95
2022-09-02T01:52:59.667Z,1015.96
2022-09-02T01:53:59.650Z,1015.94
2022-09-02T01:54:59.608Z,1015.97
2022-09-02T01:55:59.591Z,1015.99
2022-09-02T01:56:59.578Z,1016.00
2022-09-02T01:57:59.570Z,1015.94
2022-09-02T01:58:59.564Z,1015.92
2022-09-02T01:59:59.559Z,1015.93
2022-09-02T02:00:59.584Z,1015.97
2022-09-02T02:01:59.585Z,1015.94
2022-09-02T02:02:59.508Z,1015.89
2022-09-02T02:03:59.502Z,1015.89
2022-09-02T02:04:59.515Z,1015.90
2022-09-02T02:05:59.512Z,1015.91
2022-09-02T02:06:59.463Z,1015.90
2022-09-02T02:07:59.465Z,1015.89
2022-09-02T02:08:59.505Z,1015.86
2022-09-02T02:09:59.442Z,1015.86
2022-09-02T02:10:59.452Z,1015.86
2022-09-02T02:11:59.409Z,1015.83
2022-09-02T02:12:59.404Z,1015.88
2022-09-02T02:13:59.416Z,1015.87
2022-09-02T02:14:59.384Z,1015.83
2022-09-02T02:15:59.450Z,1015.85
2022-09-02T02:16:59.367Z,1015.86
2022-09-02T02:17:59.348Z,1015.77
2022-09-02T02:18:59.333Z,1015.84
2022-09-02T02:19:59.329Z,1015.84
2022-09-02T02:20:59.329Z,1015.80
2022-09-02T02:21:59.310Z,1015.83
2022-09-02T02:22:59.294Z,1015.78
2022-09-02T02:23:59.278Z,1015.80
2022-09-02T02:24:59.276Z,1015.83
2022-09-02T02:25:59.277Z,1015.79
2022-09-02T02:26:59.249Z,1015.77
2022-09-02T02:27:59.242Z,1015.84
2022-09-02T02:28:59.223Z,1015.81
2022-09-02T02:29:59.209Z,1015.79
2022-09-02T02:30:59.225Z,1015.79
2022-09-02T02:31:59.205Z,1015.80
2022-09-02T02:32:59.208Z,1015.83
2022-09-02T02:33:59.174Z,1015.79
2022-09-02T02:34:59.162Z,1015.81
2022-09-02T02:35:59.154Z,1015.80
2022-09-02T02:36:59.160Z,1015.79
2022-09-02T02:37:59.147Z,1015.80
2022-09-02T02:38:59.150Z,1015.79
2022-09-02T02:39:59.116Z,1015.78
2022-09-02T02:40:59.084Z,1015.80
2022-09-02T02:41:59.087Z,1015.76
2022-09-02T02:42:59.078Z,1015.77
2022-09-02T02:43:59.060Z,1015.76
2022-09-02T02:44:59.053Z,1015.78
2022-09-02T02:45:59.054Z,1015.77
2022-09-02T02:46:59.071Z,1015.77
2022-09-02T02:47:59.019Z,1015.74
2022-09-02T02:48:59.011Z,1015.73
2022-09-02T02:49:58.999Z,1015.71
2022-09-02T02:50:58.982Z,1015.73
2022-09-02T02:51:58.978Z,1015.75
2022-09-02T02:52:58.972Z,1015.73
2022-09-02T02:53:59.181Z,1015.75
2022-09-02T02:54:58.947Z,1015.77
2022-09-02T02:55:58.949Z,1015.79
2022-09-02T02:56:58.931Z,1015.81
2022-09-02T02:57:58.962Z,1015.76
2022-09-02T02:58:58.911Z,1015.72
2022-09-02T02:59:58.888Z,1015.69
2022-09-02T03:00:58.869Z,1015.74
2022-09-02T03:01:59.050Z,1015.76
2022-09-02T03:02:58.978Z,1015.75
2022-09-02T03:03:58.873Z,1015.75
2022-09-02T03:04:58.842Z,1015.74
2022-09-02T03:05:58.829Z,1015.79
2022-09-02T03:06:58.821Z,1015.74
2022-09-02T03:07:58.806Z,1015.80
2022-09-02T03:08:58.796Z,1015.76
2022-09-02T03:09:58.785Z,1015.74
2022-09-02T03:10:58.776Z,1015.74
2022-09-02T03:11:58.759Z,1015.76
2022-09-02T03:12:58.746Z,1015.77
2022-09-02T03:13:58.743Z,1015.74
2022-09-02T03:14:58.751Z,1015.73
2022-09-02T03:15:58.766Z,1015.75
2022-09-02T03:16:58.698Z,1015.72
2022-09-02T03:17:58.727Z,1015.71
2022-09-02T03:18:58.683Z,1015.72
2022-09-02T03:19:58.686Z,1015.69
2022-09-02T03:20:58.663Z,1015.68
2022-09-02T03:21:58.653Z,1015.67
2022-09-02T03:22:58.636Z,1015.67
2022-09-02T03:23:58.633Z,1015.62
2022-09-02T03:24:58.639Z,1015.63
2022-09-02T03:25:58.618Z,1015.65
2022-09-02T03:26:58.590Z,1015.61
2022-09-02T03:27:58.587Z,1015.63
2022-09-02T03:28:58.565Z,1015.61
2022-09-02T03:29:58.584Z,1015.60
2022-09-02T03:30:58.598Z,1015.57
2022-09-02T03:31:58.550Z,1015.60
2022-09-02T03:33:03.618Z,1015.61
2022-09-02T03:33:58.527Z,1015.62
2022-09-02T03:34:58.511Z,1015.62
2022-09-02T03:35:58.516Z,1015.62
2022-09-02T03:36:58.489Z,1015.60
2022-09-02T03:37:58.489Z,1015.60
2022-09-02T03:38:58.466Z,1015.63
2022-09-02T03:39:58.460Z,1015.61
2022-09-02T03:40:58.463Z,1015.58
2022-09-02T03:41:58.455Z,1015.60
2022-09-02T03:43:00.361Z,1015.63
2022-09-02T03:43:58.412Z,1015.60
2022-09-02T03:44:58.395Z,1015.59
2022-09-02T03:45:58.467Z,1015.60
2022-09-02T03:46:58.386Z,1015.59
2022-09-02T03:47:58.372Z,1015.55
2022-09-02T03:48:58.371Z,1015.58
2022-09-02T03:49:58.339Z,1015.54
2022-09-02T03:50:58.339Z,1015.55
2022-09-02T03:51:58.339Z,1015.55
2022-09-02T03:52:58.320Z,1015.54
2022-09-02T03:53:58.311Z,1015.53
2022-09-02T03:54:58.281Z,1015.49
2022-09-02T03:55:58.277Z,1015.53
2022-09-02T03:56:58.256Z,1015.54
2022-09-02T03:57:58.267Z,1015.57
2022-09-02T03:58:58.255Z,1015.54
2022-09-02T03:59:58.233Z,1015.55
2022-09-02T04:00:58.229Z,1015.55
2022-09-02T04:01:58.324Z,1015.55
2022-09-02T04:02:58.255Z,1015.57
2022-09-02T04:03:58.268Z,1015.57
2022-09-02T04:04:58.172Z,1015.59
2022-09-02T04:05:58.169Z,1015.59
2022-09-02T04:06:58.146Z,1015.57
2022-09-02T04:07:58.143Z,1015.57
2022-09-02T04:08:58.121Z,1015.56
2022-09-02T04:09:58.132Z,1015.58
2022-09-02T04:10:58.109Z,1015.59
2022-09-02T04:11:58.102Z,1015.59
2022-09-02T04:12:58.091Z,1015.63
2022-09-02T04:13:58.078Z,1015.61
2022-09-02T04:14:58.088Z,1015.66
2022-09-02T04:16:01.683Z,1015.66
2022-09-02T04:16:58.041Z,1015.68
2022-09-02T04:17:58.044Z,1015.69
2022-09-02T04:18:58.010Z,1015.67
2022-09-02T04:19:58.030Z,1015.66
2022-09-02T04:20:58.007Z,1015.68
2022-09-02T04:21:58.002Z,1015.70
2022-09-02T04:22:57.975Z,1015.70
2022-09-02T04:23:57.969Z,1015.69
2022-09-02T04:24:57.947Z,1015.68
2022-09-02T04:25:57.947Z,1015.66
2022-09-02T04:27:01.991Z,1015.68
2022-09-02T04:27:57.922Z,1015.69
2022-09-02T04:28:57.915Z,1015.65
2022-09-02T04:29:57.904Z,1015.68
2022-09-02T04:30:57.965Z,1015.65
2022-09-02T04:31:57.873Z,1015.65
2022-09-02T04:32:57.872Z,1015.67
2022-09-02T04:33:57.850Z,1015.66
2022-09-02T04:34:57.852Z,1015.68
2022-09-02T04:35:57.863Z,1015.67
2022-09-02T04:36:57.811Z,1015.65
2022-09-02T04:37:57.855Z,1015.66
2022-09-02T04:38:57.792Z,1015.66
2022-09-02T04:39:57.793Z,1015.66
2022-09-02T04:40:57.801Z,1015.65
2022-09-02T04:41:57.799Z,1015.66
2022-09-02T04:42:57.777Z,1015.61
2022-09-02T04:43:57.750Z,1015.60
2022-09-02T04:44:57.738Z,1015.62
2022-09-02T04:45:57.788Z,1015.61
2022-09-02T04:46:57.736Z,1015.61
2022-09-02T04:47:57.687Z,1015.59
2022-09-02T04:48:57.691Z,1015.64
2022-09-02T04:49:57.677Z,1015.60
2022-09-02T04:50:57.656Z,1015.63
2022-09-02T04:51:57.670Z,1015.63
2022-09-02T04:52:57.651Z,1015.61
2022-09-02T04:53:57.638Z,1015.64
2022-09-02T04:54:57.684Z,1015.62
2022-09-02T04:55:58.301Z,1015.63
2022-09-02T04:56:57.599Z,1015.63
2022-09-02T04:57:57.595Z,1015.61
2022-09-02T04:58:57.576Z,1015.66
2022-09-02T04:59:57.560Z,1015.65
2022-09-02T05:00:57.555Z,1015.66
2022-09-02T05:01:57.611Z,1015.67
2022-09-02T05:02:57.720Z,1015.70
2022-09-02T05:03:57.533Z,1015.70
2022-09-02T05:04:57.551Z,1015.70
2022-09-02T05:05:57.504Z,1015.70
2022-09-02T05:06:57.498Z,1015.70
2022-09-02T05:07:57.498Z,1015.70
2022-09-02T05:08:57.488Z,1015.72
2022-09-02T05:09:57.467Z,1015.69
2022-09-02T05:10:57.454Z,1015.73
2022-09-02T05:11:57.445Z,1015.69
2022-09-02T05:12:57.427Z,1015.69
2022-09-02T05:13:57.443Z,1015.71
2022-09-02T05:14:57.484Z,1015.69
2022-09-02T05:15:57.449Z,1015.75
2022-09-02T05:16:57.400Z,1015.75
2022-09-02T05:17:57.387Z,1015.76
2022-09-02T05:18:57.345Z,1015.79
2022-09-02T05:19:57.452Z,1015.78
2022-09-02T05:20:57.348Z,1015.84
2022-09-02T05:21:57.378Z,1015.84
2022-09-02T05:22:57.319Z,1015.85
2022-09-02T05:23:57.320Z,1015.86
2022-09-02T05:24:57.411Z,1015.86
2022-09-02T05:25:57.309Z,1015.80
2022-09-02T05:26:57.368Z,1015.85
2022-09-02T05:27:57.280Z,1015.84
2022-09-02T05:28:57.320Z,1015.83
2022-09-02T05:29:57.234Z,1015.80
2022-09-02T05:30:57.294Z,1015.83
2022-09-02T05:31:57.234Z,1015.85
2022-09-02T05:32:57.235Z,1015.85
2022-09-02T05:33:57.261Z,1015.83
2022-09-02T05:34:57.187Z,1015.81
2022-09-02T05:35:57.218Z,1015.83
2022-09-02T05:36:57.178Z,1015.83
2022-09-02T05:38:00.748Z,1015.87
2022-09-02T05:38:57.151Z,1015.88
2022-09-02T05:39:57.176Z,1015.88
2022-09-02T05:40:57.241Z,1015.86
2022-09-02T05:41:57.285Z,1015.84
2022-09-02T05:42:57.091Z,1015.84
2022-09-02T05:43:57.084Z,1015.86
2022-09-02T05:44:57.073Z,1015.87
2022-09-02T05:45:57.152Z,1015.87
2022-09-02T05:46:57.051Z,1015.83
2022-09-02T05:47:57.028Z,1015.83
2022-09-02T05:48:57.027Z,1015.83
2022-09-02T05:49:57.006Z,1015.84
2022-09-02T05:50:57.730Z,1015.87
2022-09-02T05:51:56.998Z,1015.84
2022-09-02T05:52:56.985Z,1015.85
2022-09-02T05:53:56.956Z,1015.83
2022-09-02T05:54:57.005Z,1015.83
2022-09-02T05:55:56.945Z,1015.81
2022-09-02T05:56:56.943Z,1015.82
2022-09-02T05:57:56.936Z,1015.78
2022-09-02T05:58:56.900Z,1015.85
2022-09-02T05:59:56.924Z,1015.85
2022-09-02T06:00:56.896Z,1015.87
2022-09-02T06:01:56.944Z,1015.85
2022-09-02T06:02:56.942Z,1015.89
2022-09-02T06:03:56.857Z,1015.84
2022-09-02T06:04:56.842Z,1015.87
2022-09-02T06:05:56.836Z,1015.87
2022-09-02T06:06:56.814Z,1015.89
2022-09-02T06:07:56.828Z,1015.89
2022-09-02T06:08:56.810Z,1015.87
2022-09-02T06:09:56.786Z,1015.86
2022-09-02T06:10:56.847Z,1015.91
2022-09-02T06:11:56.768Z,1015.88
2022-09-02T06:12:56.763Z,1015.79
2022-09-02T06:13:56.747Z,1015.80
2022-09-02T06:14:56.738Z,1015.81
2022-09-02T06:15:56.838Z,1015.81
2022-09-02T06:16:56.715Z,1015.85
2022-09-02T06:17:56.765Z,1015.83
2022-09-02T06:18:56.729Z,1015.82
2022-09-02T06:19:56.689Z,1015.83
2022-09-02T06:20:56.672Z,1015.82
2022-09-02T06:21:56.660Z,1015.83
2022-09-02T06:22:56.636Z,1015.80
2022-09-02T06:23:56.652Z,1015.84
2022-09-02T06:24:56.629Z,1015.85
2022-09-02T06:25:56.633Z,1015.81
2022-09-02T06:26:56.600Z,1015.80
2022-09-02T06:27:56.586Z,1015.82
2022-09-02T06:28:56.582Z,1015.81
2022-09-02T06:29:56.579Z,1015.84
2022-09-02T06:30:56.679Z,1015.85
2022-09-02T06:31:56.541Z,1015.84
2022-09-02T06:32:56.543Z,1015.81
2022-09-02T06:33:56.519Z,1015.86
2022-09-02T06:34:56.525Z,1015.83
2022-09-02T06:35:56.529Z,1015.82
2022-09-02T06:36:56.496Z,1015.85
2022-09-02T06:37:56.479Z,1015.86
2022-09-02T06:38:56.477Z,1015.82
2022-09-02T06:39:56.455Z,1015.85
2022-09-02T06:40:56.496Z,1015.81
2022-09-02T06:41:56.434Z,1015.81
2022-09-02T06:42:56.451Z,1015.78
2022-09-02T06:43:56.417Z,1015.77
2022-09-02T06:44:56.418Z,1015.76
2022-09-02T06:45:56.429Z,1015.79
2022-09-02T06:46:56.401Z,1015.80
2022-09-02T06:47:56.376Z,1015.80
2022-09-02T06:48:56.456Z,1015.81
2022-09-02T06:49:56.363Z,1015.82
2022-09-02T06:50:56.346Z,1015.81
2022-09-02T06:51:56.316Z,1015.81
2022-09-02T06:52:56.317Z,1015.80
2022-09-02T06:53:56.311Z,1015.82
2022-09-02T06:54:56.290Z,1015.81
2022-09-02T06:55:56.287Z,1015.75
2022-09-02T06:56:56.289Z,1015.81
2022-09-02T06:57:56.250Z,1015.79
2022-09-02T06:58:56.264Z,1015.77
2022-09-02T07:00:02.100Z,1015.80
2022-09-02T07:00:56.229Z,1015.79
2022-09-02T07:01:56.426Z,1015.78
2022-09-02T07:02:56.200Z,1015.81
2022-09-02T07:03:56.192Z,1015.77
2022-09-02T07:04:57.648Z,1015.81
2022-09-02T07:05:56.161Z,1015.85
2022-09-02T07:06:56.160Z,1015.82
2022-09-02T07:07:56.152Z,1015.82
2022-09-02T07:08:56.137Z,1015.78
2022-09-02T07:09:56.183Z,1015.82
2022-09-02T07:10:56.113Z,1015.84
2022-09-02T07:11:56.099Z,1015.83
2022-09-02T07:12:56.102Z,1015.85
2022-09-02T07:13:56.092Z,1015.89
2022-09-02T07:14:56.087Z,1015.88
2022-09-02T07:15:56.052Z,1015.90
2022-09-02T07:16:56.106Z,1015.92
2022-09-02T07:17:56.051Z,1015.88
2022-09-02T07:18:56.032Z,1015.88
2022-09-02T07:19:56.020Z,1015.85
2022-09-02T07:20:56.002Z,1015.87
2022-09-02T07:21:55.983Z,1015.85
2022-09-02T07:22:55.980Z,1015.85
2022-09-02T07:23:55.976Z,1015.87
2022-09-02T07:24:55.971Z,1015.89
2022-09-02T07:25:55.967Z,1015.89
2022-09-02T07:26:56.097Z,1015.89
2022-09-02T07:27:55.940Z,1015.90
2022-09-02T07:28:55.927Z,1015.91
2022-09-02T07:29:55.909Z,1015.91
2022-09-02T07:30:59.661Z,1015.94
2022-09-02T07:31:55.882Z,1015.91
2022-09-02T07:32:55.866Z,1015.91
2022-09-02T07:33:55.847Z,1015.89
2022-09-02T07:34:55.857Z,1015.94
2022-09-02T07:35:56.290Z,1015.88
2022-09-02T07:37:00.185Z,1015.89
2022-09-02T07:37:55.821Z,1015.92
2022-09-02T07:38:55.805Z,1015.91
2022-09-02T07:39:55.809Z,1015.86
2022-09-02T07:40:56.992Z,1015.88
2022-09-02T07:41:55.770Z,1015.85
2022-09-02T07:43:59.603Z,1015.88
2022-09-02T07:44:55.757Z,1015.89
2022-09-02T07:45:55.912Z,1015.89
2022-09-02T07:46:55.710Z,1015.89
2022-09-02T07:47:55.708Z,1015.94
2022-09-02T07:48:55.686Z,1015.91
2022-09-02T07:50:55.680Z,1015.93
2022-09-02T07:51:55.665Z,1015.96
2022-09-02T07:52:55.641Z,1015.94
2022-09-02T07:53:55.656Z,1015.95
2022-09-02T07:54:55.635Z,1015.97
2022-09-02T07:55:55.608Z,1015.96
2022-09-02T07:56:55.645Z,1015.95
2022-09-02T07:57:55.735Z,1015.95
2022-09-02T07:58:55.596Z,1015.98
2022-09-02T07:59:55.570Z,1015.87
2022-09-02T08:00:55.635Z,1015.90
2022-09-02T08:01:55.553Z,1015.89
2022-09-02T08:02:55.700Z,1015.89
2022-09-02T08:03:55.525Z,1015.92
2022-09-02T08:04:55.516Z,1015.89
2022-09-02T08:05:55.515Z,1015.89
2022-09-02T08:06:55.496Z,1015.92
2022-09-02T08:07:55.539Z,1015.87
2022-09-02T08:08:55.500Z,1015.90
2022-09-02T08:09:55.479Z,1015.88
2022-09-02T08:10:55.536Z,1015.88
2022-09-02T08:11:55.443Z,1015.91
2022-09-02T08:12:55.451Z,1015.90
2022-09-02T08:13:55.466Z,1015.87
2022-09-02T08:14:55.420Z,1015.88
2022-09-02T08:15:55.421Z,1015.89
2022-09-02T08:16:55.491Z,1015.86
2022-09-02T08:17:55.416Z,1015.85
2022-09-02T08:18:55.395Z,1015.85
2022-09-02T08:19:55.369Z,1015.86
2022-09-02T08:20:55.347Z,1015.85
2022-09-02T08:21:55.332Z,1015.86
2022-09-02T08:23:05.281Z,1015.85
2022-09-02T08:23:55.311Z,1015.89
2022-09-02T08:24:55.329Z,1015.86
2022-09-02T08:25:55.279Z,1015.88
2022-09-02T08:26:55.273Z,1015.89
2022-09-02T08:28:55.252Z,1015.88
2022-09-02T08:29:55.250Z,1015.87
2022-09-02T08:30:55.245Z,1015.89
2022-09-02T08:31:55.280Z,1015.91
2022-09-02T08:32:55.207Z,1015.91
2022-09-02T08:33:55.193Z,1015.89
2022-09-02T08:34:55.186Z,1015.91
2022-09-02T08:35:55.201Z,1015.89
2022-09-02T08:36:56.556Z,1015.87
2022-09-02T08:37:55.150Z,1015.87
2022-09-02T08:38:55.139Z,1015.87
2022-09-02T08:39:55.121Z,1015.88
2022-09-02T08:40:55.179Z,1015.90
2022-09-02T08:41:55.159Z,1015.87
2022-09-02T08:42:55.093Z,1015.87
2022-09-02T08:43:55.082Z,1015.88
2022-09-02T08:44:55.080Z,1015.84
2022-09-02T08:45:55.109Z,1015.88
2022-09-02T08:46:55.088Z,1015.88
2022-09-02T08:47:55.043Z,1015.86
2022-09-02T08:48:55.042Z,1015.86
2022-09-02T08:49:55.019Z,1015.82
2022-09-02T08:50:55.110Z,1015.87
2022-09-02T08:51:55.021Z,1015.81
2022-09-02T08:52:55.010Z,1015.82
2022-09-02T08:53:54.983Z,1015.83
2022-09-02T08:54:54.966Z,1015.85
2022-09-02T08:55:54.950Z,1015.82
2022-09-02T08:56:54.949Z,1015.82
2022-09-02T08:57:54.963Z,1015.80
2022-09-02T08:58:56.454Z,1015.77
2022-09-02T08:59:54.910Z,1015.77
2022-09-02T09:00:54.952Z,1015.77
2022-09-02T09:01:54.980Z,1015.75
2022-09-02T09:02:54.883Z,1015.79
2022-09-02T09:03:54.878Z,1015.77
2022-09-02T09:04:54.878Z,1015.75
2022-09-02T09:05:54.847Z,1015.76
2022-09-02T09:06:54.840Z,1015.76
2022-09-02T09:07:54.819Z,1015.74
2022-09-02T09:08:54.852Z,1015.73
2022-09-02T09:09:54.809Z,1015.71
2022-09-02T09:10:54.836Z,1015.61
2022-09-02T09:11:54.775Z,1015.64
2022-09-02T09:12:54.772Z,1015.59
2022-09-02T09:13:54.766Z,1015.61
2022-09-02T09:14:54.775Z,1015.60
2022-09-02T09:15:54.739Z,1015.61
2022-09-02T09:16:54.870Z,1015.64
2022-09-02T09:17:54.708Z,1015.63
2022-09-02T09:18:54.703Z,1015.60
2022-09-02T09:19:54.686Z,1015.58
2022-09-02T09:20:54.699Z,1015.55
2022-09-02T09:21:54.658Z,1015.58
2022-09-02T09:22:54.666Z,1015.58
2022-09-02T09:23:54.679Z,1015.56
2022-09-02T09:24:54.631Z,1015.55
2022-09-02T09:25:54.659Z,1015.57
2022-09-02T09:26:54.611Z,1015.52
2022-09-02T09:27:54.601Z,1015.50
2022-09-02T09:28:54.597Z,1015.54
2022-09-02T09:29:54.579Z,1015.56
2022-09-02T09:30:54.569Z,1015.54
2022-09-02T09:31:54.603Z,1015.53
2022-09-02T09:32:54.551Z,1015.55
2022-09-02T09:33:54.530Z,1015.50
2022-09-02T09:34:54.536Z,1015.49
2022-09-02T09:35:54.526Z,1015.50
2022-09-02T09:36:54.517Z,1015.47
2022-09-02T09:37:54.494Z,1015.43
2022-09-02T09:38:54.476Z,1015.47
2022-09-02T09:39:54.470Z,1015.49
2022-09-02T09:40:54.529Z,1015.45
2022-09-02T09:41:54.457Z,1015.50
2022-09-02T09:42:54.468Z,1015.50
2022-09-02T09:43:54.432Z,1015.49
2022-09-02T09:44:54.430Z,1015.46
2022-09-02T09:45:54.517Z,1015.46
2022-09-02T09:46:54.407Z,1015.45
2022-09-02T09:47:57.138Z,1015.42
2022-09-02T09:48:54.371Z,1015.41
2022-09-02T09:49:54.355Z,1015.42
2022-09-02T09:50:54.352Z,1015.38
2022-09-02T09:51:54.337Z,1015.35
2022-09-02T09:52:54.333Z,1015.39
2022-09-02T09:53:54.312Z,1015.38
2022-09-02T09:54:54.305Z,1015.37
2022-09-02T09:55:54.288Z,1015.35
2022-09-02T09:56:54.294Z,1015.37
2022-09-02T09:57:54.280Z,1015.39
2022-09-02T09:58:54.267Z,1015.35
2022-09-02T09:59:54.246Z,1015.35
2022-09-02T10:00:54.262Z,1015.33
2022-09-02T10:01:54.327Z,1015.32
2022-09-02T10:02:54.226Z,1015.32
2022-09-02T10:03:54.239Z,1015.30
2022-09-02T10:04:54.228Z,1015.26
2022-09-02T10:05:54.188Z,1015.26
2022-09-02T10:06:54.175Z,1015.25
2022-09-02T10:07:54.163Z,1015.28
2022-09-02T10:08:54.147Z,1015.22
2022-09-02T10:09:54.447Z,1015.23
2022-09-02T10:10:54.153Z,1015.24
2022-09-02T10:11:54.113Z,1015.22
2022-09-02T10:12:54.111Z,1015.19
2022-09-02T10:13:54.093Z,1015.24
2022-09-02T10:14:54.091Z,1015.23
2022-09-02T10:15:54.138Z,1015.23
2022-09-02T10:16:54.124Z,1015.21
2022-09-02T10:17:54.080Z,1015.20
2022-09-02T10:18:54.069Z,1015.20
2022-09-02T10:19:54.043Z,1015.21
2022-09-02T10:21:54.037Z,1015.19
2022-09-02T10:22:59.524Z,1015.21
2022-09-02T10:23:53.992Z,1015.22
2022-09-02T10:24:53.989Z,1015.21
2022-09-02T10:25:53.970Z,1015.18
2022-09-02T10:26:53.981Z,1015.16
2022-09-02T10:27:53.960Z,1015.16
2022-09-02T10:28:53.936Z,1015.18
2022-09-02T10:29:53.932Z,1015.17
2022-09-02T10:30:53.914Z,1015.18
2022-09-02T10:31:53.948Z,1015.15
2022-09-02T10:32:53.907Z,1015.12
2022-09-02T10:33:53.891Z,1015.10
2022-09-02T10:34:53.870Z,1015.06
2022-09-02T10:35:53.856Z,1015.04
2022-09-02T10:36:53.856Z,1015.09
2022-09-02T10:37:53.831Z,1015.06
2022-09-02T10:38:53.851Z,1015.04
2022-09-02T10:39:53.815Z,1015.06
2022-09-02T10:40:53.880Z,1015.08
2022-09-02T10:41:53.796Z,1015.13
2022-09-02T10:42:53.783Z,1015.10
2022-09-02T10:43:56.806Z,1015.13
2022-09-02T10:44:57.013Z,1015.11
2022-09-02T10:45:53.756Z,1015.12
2022-09-02T10:46:53.983Z,1015.11
2022-09-02T10:47:53.735Z,1015.09
2022-09-02T10:48:53.755Z,1015.12
2022-09-02T10:49:53.743Z,1015.09
2022-09-02T10:50:53.701Z,1015.13
2022-09-02T10:51:53.681Z,1015.05
2022-09-02T10:52:53.677Z,1015.09
2022-09-02T10:53:53.659Z,1015.02
2022-09-02T10:54:53.656Z,1015.07
2022-09-02T10:55:53.661Z,1015.04
2022-09-02T10:56:53.659Z,1015.06
2022-09-02T10:57:53.626Z,1015.04
2022-09-02T10:58:53.663Z,1015.00
2022-09-02T10:59:53.604Z,1015.01
2022-09-02T11:00:53.662Z,1015.02
2022-09-02T11:01:53.598Z,1015.02
2022-09-02T11:02:53.562Z,1015.00
2022-09-02T11:03:53.706Z,1014.95
2022-09-02T11:04:55.155Z,1014.97
2022-09-02T11:05:53.553Z,1014.98
2022-09-02T11:07:08.880Z,1015.01
2022-09-02T11:07:53.530Z,1014.96
2022-09-02T11:08:53.503Z,1014.97
2022-09-02T11:09:53.490Z,1014.99
2022-09-02T11:10:53.489Z,1014.97
2022-09-02T11:11:55.913Z,1014.95
2022-09-02T11:12:53.473Z,1014.91
2022-09-02T11:13:53.457Z,1014.94
2022-09-02T11:14:53.429Z,1014.97
2022-09-02T11:15:53.487Z,1014.93
2022-09-02T11:16:53.425Z,1014.91
2022-09-02T11:17:53.419Z,1014.91
2022-09-02T11:18:53.389Z,1014.86
2022-09-02T11:19:53.391Z,1014.90
2022-09-02T11:20:53.484Z,1014.90
2022-09-02T11:21:53.400Z,1014.88
2022-09-02T11:22:54.356Z,1014.91
2022-09-02T11:23:53.344Z,1014.87
2022-09-02T11:24:53.337Z,1014.87
2022-09-02T11:25:53.314Z,1014.85
2022-09-02T11:26:53.300Z,1014.87
2022-09-02T11:27:53.359Z,1014.86
2022-09-02T11:28:53.279Z,1014.87
2022-09-02T11:29:53.287Z,1014.87
2022-09-02T11:30:53.276Z,1014.87
2022-09-02T11:31:53.255Z,1014.87
2022-09-02T11:32:53.257Z,1014.88
2022-09-02T11:33:53.268Z,1014.89
2022-09-02T11:34:53.240Z,1014.89
2022-09-02T11:35:53.204Z,1014.86
2022-09-02T11:36:53.196Z,1014.88
2022-09-02T11:37:53.392Z,1014.84
2022-09-02T11:38:53.169Z,1014.82
2022-09-02T11:39:59.222Z,1014.86
2022-09-02T11:41:53.169Z,1014.84
2022-09-02T11:42:53.143Z,1014.83
2022-09-02T11:43:53.172Z,1014.84
2022-09-02T11:44:53.316Z,1014.83
2022-09-02T11:45:53.172Z,1014.85
2022-09-02T11:46:53.137Z,1014.84
2022-09-02T11:47:53.075Z,1014.80
2022-09-02T11:48:53.074Z,1014.83
2022-09-02T11:49:53.081Z,1014.87
2022-09-02T11:50:53.053Z,1014.88
2022-09-02T11:51:53.042Z,1014.85
2022-09-02T11:52:53.041Z,1014.83
2022-09-02T11:53:54.913Z,1014.84
2022-09-02T11:54:53.013Z,1014.87
2022-09-02T11:55:52.987Z,1014.85
2022-09-02T11:56:52.974Z,1014.82
2022-09-02T11:57:52.970Z,1014.83
2022-09-02T11:58:52.972Z,1014.75
2022-09-02T11:59:52.957Z,1014.78
2022-09-02T12:00:52.973Z,1014.74
2022-09-02T12:01:52.936Z,1014.74
2022-09-02T12:02:52.910Z,1014.76
2022-09-02T12:04:27.593Z,1014.69
2022-09-02T12:05:00.438Z,1014.71
2022-09-02T12:05:53.010Z,1014.75
2022-09-02T12:06:52.952Z,1014.70
2022-09-02T12:07:52.863Z,1014.59
2022-09-02T12:08:52.843Z,1014.64
2022-09-02T12:09:52.839Z,1014.58